Pentecoste, Brazil
Current Conditions -  °F | °C
As of 12:00 PM on Wednesday 26 Nov 2014 (Local Time) from SBFZ Reporting Station
Scattered Clouds Scattered Clouds  
Wind Chill: 86°   Ceiling: Unl
Heat Index: 87°   Visibility: 6mi
Dew Point: 64°   Wind: 24mph
Humidity: 48%   Direction: 100°E
Pressure: 29.88"   Gusts: NA
Location:  3.79°S, 39.27°W
Report Text: SBFZ 261500Z 10021KT 9999 SCT025 30/18 Q1012
Loading
Personal Weather Stations






























Interactive Weather Map New forecast layout! Learn more

10-Day Weather Forecast

Advertisements
Track Severe Weather on mobile